Time;durP1;ratioP1;P1;durP2;ratioP2;P2;SDS_P1;SDS_P2;PMS_P1;PMS_P2;Temp;Humidity;BMP_temperature;BMP_pressure;BME280_temperature;BME280_humidity;BME280_pressure;Samples;Min_cycle;Max_cycle;Signal;HPM_P1;HPM_P2
2023/07/28 00:04:25;;;;;;;0.82;0.68;;;;;;;17.01;70.58;99016.50;10425963;28;20155;-58
2023/07/28 00:09:27;;;;;;;2.00;0.90;;;;;;;17.00;70.55;99011.34;10422966;28;20433;-58
2023/07/28 00:14:29;;;;;;;0.95;0.63;;;;;;;17.06;70.51;99005.44;10425852;28;20064;-58
2023/07/28 00:19:31;;;;;;;1.45;0.90;;;;;;;17.06;70.47;99008.09;10426205;28;20231;-59
2023/07/28 00:24:33;;;;;;;1.27;0.80;;;;;;;16.97;70.48;99014.31;10425938;28;20159;-58
2023/07/28 00:29:35;;;;;;;0.77;0.73;;;;;;;16.99;70.60;99015.00;10422732;28;20049;-58
2023/07/28 00:34:37;;;;;;;1.70;0.68;;;;;;;17.04;70.46;99013.53;10423573;28;20471;-58
2023/07/28 00:39:39;;;;;;;1.40;0.82;;;;;;;17.06;70.35;99016.00;10424583;28;20092;-58
2023/07/28 00:44:41;;;;;;;1.05;0.70;;;;;;;17.02;70.87;99019.94;10421780;28;20153;-59
2023/07/28 00:49:43;;;;;;;0.73;0.50;;;;;;;16.98;70.85;99018.59;10438745;28;20041;-58
2023/07/28 00:54:45;;;;;;;0.50;0.50;;;;;;;16.99;70.85;99023.75;10423469;28;20057;-58
2023/07/28 00:59:47;;;;;;;3.03;0.98;;;;;;;17.07;70.80;99027.41;10416974;28;20055;-58
2023/07/28 01:04:52;;;;;;;1.08;0.88;;;;;;;17.12;70.54;99018.03;10422646;28;20112;-58
2023/07/28 01:10:05;;;;;;;0.50;0.47;;;;;;;17.12;70.79;99014.59;10455612;28;20132;-58
2023/07/28 01:15:08;;;;;;;0.93;0.90;;;;;;;17.21;70.36;99006.56;10421259;28;20183;-59
2023/07/28 01:20:10;;;;;;;1.20;0.90;;;;;;;17.25;70.18;99010.53;10423069;28;20053;-58
2023/07/28 01:25:22;;;;;;;1.13;0.75;;;;;;;17.28;70.63;99014.69;10453309;28;20694;-58
2023/07/28 01:30:26;;;;;;;1.33;0.70;;;;;;;17.24;70.36;99010.69;10423613;28;20114;-58
2023/07/28 01:35:28;;;;;;;0.73;0.70;;;;;;;17.18;70.73;99004.22;10421179;28;20049;-58
2023/07/28 01:40:30;;;;;;;0.77;0.75;;;;;;;17.13;70.67;99000.38;10402747;28;20409;-58
2023/07/28 01:45:33;;;;;;;1.85;0.60;;;;;;;17.10;71.18;98998.06;10417771;28;20048;-59
2023/07/28 01:50:36;;;;;;;0.77;0.60;;;;;;;17.16;70.80;98995.59;10421401;28;20520;-58
2023/07/28 01:55:38;;;;;;;1.35;0.82;;;;;;;17.23;70.83;98996.66;10421505;28;20048;-59
2023/07/28 02:00:40;;;;;;;1.05;0.70;;;;;;;17.22;70.54;98984.41;10417907;28;20057;-59
2023/07/28 02:05:44;;;;;;;1.48;1.02;;;;;;;17.22;70.68;98992.34;10430514;28;20687;-58
2023/07/28 02:10:46;;;;;;;0.68;0.50;;;;;;;17.14;70.95;98991.47;10430788;28;20065;-58
2023/07/28 02:15:48;;;;;;;1.58;0.80;;;;;;;17.10;70.95;98996.22;10427114;28;20047;-58
2023/07/28 02:20:50;;;;;;;1.15;0.68;;;;;;;17.01;71.16;98991.91;10427821;28;20110;-58
2023/07/28 02:25:52;;;;;;;0.77;0.55;;;;;;;16.90;71.62;98998.25;10423246;28;20111;-58
2023/07/28 02:30:54;;;;;;;0.45;0.45;;;;;;;16.93;71.69;98999.75;10427848;28;20156;-58
2023/07/28 02:35:56;;;;;;;4.53;0.63;;;;;;;17.03;71.36;98995.22;10426025;28;20832;-58
2023/07/28 02:40:58;;;;;;;1.08;0.75;;;;;;;17.08;71.17;98986.81;10429854;28;20048;-59
2023/07/28 02:46:00;;;;;;;0.90;0.63;;;;;;;17.13;71.40;98990.66;10425904;28;20048;-59
2023/07/28 02:51:02;;;;;;;1.75;0.60;;;;;;;17.19;71.25;98992.66;10409659;28;20065;-58
2023/07/28 02:56:04;;;;;;;0.28;0.28;;;;;;;17.14;70.96;98986.19;10427913;28;20053;-59
2023/07/28 03:01:07;;;;;;;3.40;0.82;;;;;;;17.12;70.85;98990.81;10424807;28;20045;-59
2023/07/28 03:06:11;;;;;;;0.73;0.50;;;;;;;17.00;70.88;98979.66;10406380;28;20041;-58
2023/07/28 03:11:15;;;;;;;3.35;0.57;;;;;;;16.91;71.00;98985.88;10421442;28;20041;-58
2023/07/28 03:16:17;;;;;;;0.35;0.30;;;;;;;16.85;71.39;98978.56;10424921;28;20041;-58
2023/07/28 03:21:20;;;;;;;0.68;0.45;;;;;;;16.81;71.58;98987.78;10411469;28;20516;-59
2023/07/28 03:26:22;;;;;;;0.52;0.52;;;;;;;16.78;71.55;98991.56;10423157;28;20124;-58
2023/07/28 03:31:24;;;;;;;0.47;0.40;;;;;;;16.74;71.78;98992.84;10421250;28;20051;-58
2023/07/28 03:36:26;;;;;;;0.28;0.28;;;;;;;16.76;71.73;99001.44;10453622;28;20041;-58
2023/07/28 03:41:29;;;;;;;0.47;0.47;;;;;;;16.82;71.59;99000.00;10415080;28;20691;-58
2023/07/28 03:46:31;;;;;;;0.45;0.45;;;;;;;16.82;71.68;98998.19;10455289;28;20071;-58
2023/07/28 03:51:33;;;;;;;10.05;0.88;;;;;;;16.89;71.35;98990.50;10412386;28;20858;-59
2023/07/28 03:56:35;;;;;;;0.55;0.50;;;;;;;16.83;71.95;98999.84;10462879;28;20192;-58
2023/07/28 04:01:37;;;;;;;0.68;0.60;;;;;;;16.87;72.06;99005.66;10427562;28;20055;-58
2023/07/28 04:06:52;;;;;;;0.65;0.52;;;;;;;16.92;71.75;99008.66;10423009;28;20048;-59
2023/07/28 04:11:54;;;;;;;3.03;0.35;;;;;;;17.07;71.65;99006.28;10425293;28;20087;-58
2023/07/28 04:16:56;;;;;;;0.20;0.20;;;;;;;17.22;71.56;99004.75;10429879;28;20103;-58
2023/07/28 04:21:58;;;;;;;0.98;0.88;;;;;;;17.29;71.13;99009.25;10427555;28;20655;-58
2023/07/28 04:27:02;;;;;;;2.83;0.85;;;;;;;17.39;71.08;99025.00;10460564;28;20044;-59
2023/07/28 04:32:05;;;;;;;0.43;0.30;;;;;;;17.49;70.75;99017.78;10457497;28;20048;-58
2023/07/28 04:37:08;;;;;;;0.73;0.50;;;;;;;17.52;70.54;99023.63;10426217;28;20285;-58
2023/07/28 04:42:19;;;;;;;0.38;0.30;;;;;;;17.61;70.52;99027.94;10440342;28;20053;-58
2023/07/28 04:47:22;;;;;;;0.40;0.30;;;;;;;17.63;70.54;99028.63;10424871;28;20582;-59
2023/07/28 04:52:24;;;;;;;0.22;0.22;;;;;;;17.62;70.68;99034.91;10426969;28;20119;-58
2023/07/28 04:57:59;;;;;;;0.43;0.30;;;;;;;17.63;70.64;99039.19;10413889;28;20125;-58
2023/07/28 05:03:10;;;;;;;0.43;0.30;;;;;;;17.70;70.57;99045.53;10458321;28;20057;-59
2023/07/28 05:08:19;;;;;;;5.85;0.82;;;;;;;17.85;70.10;99040.47;10424097;28;20052;-58
2023/07/28 05:13:23;;;;;;;0.30;0.15;;;;;;;18.01;70.00;99048.47;10425861;28;20049;-58
2023/07/28 05:18:29;;;;;;;0.20;0.20;;;;;;;18.08;69.63;99044.19;10427066;28;20140;-59
2023/07/28 05:24:00;;;;;;;2.92;0.22;;;;;;;17.99;69.61;99042.50;10407427;28;20049;-58
2023/07/28 05:29:04;;;;;;;0.10;0.10;;;;;;;18.06;69.47;99037.38;10425959;28;20045;-59
2023/07/28 05:34:06;;;;;;;1.63;0.50;;;;;;;18.18;69.36;99038.78;10409424;28;20057;-58
2023/07/28 05:39:08;;;;;;;0.20;0.20;;;;;;;18.27;69.30;99041.31;10426523;28;20211;-58
2023/07/28 05:44:15;;;;;;;0.38;0.38;;;;;;;18.38;68.95;99034.88;10405636;28;20045;-59
2023/07/28 05:49:17;;;;;;;1.38;0.20;;;;;;;18.55;68.59;99040.03;10457528;28;20052;-58
2023/07/28 05:54:19;;;;;;;1.55;0.52;;;;;;;18.52;68.54;99042.97;10458730;28;20476;-58
2023/07/28 05:59:21;;;;;;;0.35;0.10;;;;;;;18.61;68.26;99051.78;10411118;28;20040;-58
2023/07/28 06:04:23;;;;;;;0.28;0.25;;;;;;;18.75;67.93;99059.06;10427058;28;20582;-58
2023/07/28 06:09:29;;;;;;;0.10;0.10;;;;;;;19.24;67.35;99055.47;10422448;28;20041;-58
2023/07/28 06:14:32;;;;;;;0.08;0.08;;;;;;;19.56;66.29;99056.41;10423682;28;20048;-59
2023/07/28 06:19:34;;;;;;;0.13;0.13;;;;;;;19.58;66.07;99057.91;10405295;28;20049;-59
2023/07/28 06:24:36;;;;;;;0.13;0.13;;;;;;;19.93;65.70;99061.97;10421097;28;20063;-59
2023/07/28 06:29:38;;;;;;;0.10;0.10;;;;;;;19.81;65.58;99068.59;10426312;28;20049;-59
2023/07/28 06:34:40;;;;;;;0.10;0.10;;;;;;;19.88;65.21;99074.91;10455264;28;20131;-59
2023/07/28 06:39:42;;;;;;;0.10;0.10;;;;;;;20.53;64.37;99067.44;10424855;28;20060;-59
2023/07/28 06:44:44;;;;;;;0.20;0.20;;;;;;;21.10;62.75;99071.38;10422439;28;20163;-59
2023/07/28 06:49:46;;;;;;;0.20;0.20;;;;;;;21.35;62.25;99075.53;10426208;28;20545;-58
2023/07/28 06:54:49;;;;;;;0.08;0.08;;;;;;;21.19;61.95;99085.44;10451218;28;20501;-59
2023/07/28 06:59:51;;;;;;;0.20;0.20;;;;;;;21.32;61.71;99086.50;10417706;28;20045;-59
2023/07/28 07:04:53;;;;;;;0.20;0.20;;;;;;;21.43;61.10;99091.41;10400989;28;20163;-59
2023/07/28 07:09:56;;;;;;;14.43;1.05;;;;;;;21.16;61.50;99091.09;10418629;28;20053;-59
2023/07/28 07:15:01;;;;;;;0.15;0.15;;;;;;;21.35;61.48;99091.47;10416089;28;20057;-59
2023/07/28 07:20:05;;;;;;;2.75;0.40;;;;;;;21.49;60.75;99088.03;10418406;28;20509;-59
2023/07/28 07:25:08;;;;;;;0.75;0.60;;;;;;;21.78;60.40;99096.00;10427810;28;20072;-59
2023/07/28 07:30:10;;;;;;;0.10;0.10;;;;;;;21.69;60.08;99093.63;10428219;28;20055;-59
2023/07/28 07:35:12;;;;;;;0.20;0.20;;;;;;;21.25;60.93;99109.50;10425704;28;20041;-59
2023/07/28 07:40:14;;;;;;;0.22;0.22;;;;;;;20.93;61.13;99126.50;10427789;28;20557;-59
2023/07/28 07:45:17;;;;;;;0.20;0.20;;;;;;;20.83;61.44;99125.06;10428921;28;20072;-59
2023/07/28 07:50:19;;;;;;;0.20;0.20;;;;;;;20.71;61.66;99131.78;10421521;28;20052;-59
2023/07/28 07:55:21;;;;;;;0.20;0.20;;;;;;;20.92;61.18;99138.16;10429559;28;20370;-59
2023/07/28 08:00:23;;;;;;;0.30;0.30;;;;;;;21.06;60.94;99145.38;10423991;28;20045;-59
2023/07/28 08:05:25;;;;;;;0.20;0.20;;;;;;;21.12;60.61;99154.47;10427272;28;20133;-59
2023/07/28 08:10:27;;;;;;;0.30;0.30;;;;;;;21.07;60.74;99154.97;10420418;28;20538;-62
2023/07/28 08:15:30;;;;;;;0.10;0.10;;;;;;;21.33;60.75;99156.50;10426778;28;20356;-62
2023/07/28 08:20:32;;;;;;;1.80;0.30;;;;;;;21.42;60.01;99158.91;10423426;28;20437;-62
2023/07/28 08:25:34;;;;;;;0.10;0.10;;;;;;;21.34;60.37;99164.28;10428058;28;20227;-61
2023/07/28 08:30:36;;;;;;;0.40;0.40;;;;;;;21.65;60.18;99164.19;10417710;28;20064;-62
2023/07/28 08:35:38;;;;;;;1.17;0.40;;;;;;;21.91;60.01;99172.59;10423496;28;20120;-62
2023/07/28 08:40:40;;;;;;;0.20;0.20;;;;;;;22.27;59.21;99173.53;10417514;28;20055;-62
2023/07/28 08:45:43;;;;;;;0.20;0.20;;;;;;;22.13;59.03;99168.25;10418808;28;20511;-62
2023/07/28 08:50:45;;;;;;;0.32;0.32;;;;;;;22.57;58.33;99163.69;10423074;28;20052;-62
2023/07/28 08:55:47;;;;;;;2.65;0.20;;;;;;;22.99;57.31;99157.63;10426069;28;20053;-62
2023/07/28 09:00:52;;;;;;;0.77;0.57;;;;;;;23.35;56.44;99161.88;10423320;28;20053;-62
2023/07/28 09:06:01;;;;;;;0.40;0.40;;;;;;;23.80;54.08;99163.31;10424641;28;20379;-62
2023/07/28 09:11:06;;;;;;;0.28;0.28;;;;;;;23.83;54.19;99168.28;10417172;28;20608;-61
2023/07/28 09:16:20;;;;;;;0.20;0.20;;;;;;;24.06;52.79;99168.81;10423133;28;20052;-62
2023/07/28 09:21:23;;;;;;;0.10;0.10;;;;;;;24.27;53.61;99175.97;10451812;28;20050;-62
2023/07/28 09:26:36;;;;;;;0.68;0.50;;;;;;;23.78;53.26;99181.38;10419187;28;20045;-62
2023/07/28 09:31:38;;;;;;;0.10;0.10;;;;;;;23.98;53.70;99171.66;10418033;28;20196;-62
2023/07/28 09:36:41;;;;;;;0.22;0.22;;;;;;;23.86;53.90;99180.44;10423333;28;20501;-62
2023/07/28 09:41:45;;;;;;;0.20;0.20;;;;;;;23.25;53.62;99180.06;10414446;28;20080;-62
2023/07/28 09:46:51;;;;;;;0.15;0.15;;;;;;;22.60;54.49;99185.47;10416406;28;20060;-63
2023/07/28 09:51:54;;;;;;;0.20;0.20;;;;;;;22.17;55.87;99180.97;10418599;28;21374;-63
2023/07/28 09:56:57;;;;;;;0.32;0.30;;;;;;;22.97;54.85;99186.31;10417711;28;20493;-62
2023/07/28 10:02:00;;;;;;;0.38;0.38;;;;;;;23.27;54.01;99187.88;10422071;28;20036;-62
2023/07/28 10:07:08;;;;;;;0.65;0.25;;;;;;;23.89;52.25;99182.69;10423029;28;20287;-62
2023/07/28 10:12:25;;;;;;;1.55;0.30;;;;;;;24.26;51.42;99177.84;10422591;28;20503;-62
2023/07/28 10:17:35;;;;;;;0.50;0.30;;;;;;;24.28;51.62;99173.13;10422318;28;20425;-62
2023/07/28 10:22:44;;;;;;;0.95;0.70;;;;;;;24.95;50.07;99185.78;10453298;28;20060;-62
2023/07/28 10:27:47;;;;;;;1.08;0.60;;;;;;;25.58;49.70;99176.41;10449762;28;20136;-62
2023/07/28 10:32:50;;;;;;;0.35;0.35;;;;;;;25.42;50.89;99172.31;10424203;28;20055;-62
2023/07/28 10:37:56;;;;;;;0.40;0.40;;;;;;;25.45;50.36;99179.91;10417293;28;20052;-62
2023/07/28 10:43:01;;;;;;;0.45;0.40;;;;;;;25.86;49.92;99180.53;10423043;28;21097;-62
2023/07/28 10:48:03;;;;;;;0.57;0.40;;;;;;;26.26;49.16;99169.78;10453882;28;20057;-62
2023/07/28 10:53:05;;;;;;;0.50;0.50;;;;;;;26.35;48.84;99160.47;10422491;28;20048;-62
2023/07/28 11:36:45;;;;;;;0.40;0.40;;;;;;;24.42;51.10;99174.00;10419800;27;20211;-61
2023/07/28 11:41:48;;;;;;;1.95;0.60;;;;;;;25.16;50.00;99174.09;10387289;28;20094;-60
2023/07/28 11:46:54;;;;;;;0.50;0.50;;;;;;;25.23;50.06;99178.41;10326879;28;20184;-61
2023/07/28 11:51:58;;;;;;;1.30;0.55;;;;;;;25.42;48.92;99172.31;10346805;28;20053;-61
2023/07/28 11:57:01;;;;;;;0.60;0.60;;;;;;;25.86;48.33;99161.78;10374020;28;20046;-60
2023/07/28 12:02:04;;;;;;;0.70;0.70;;;;;;;26.14;47.91;99166.09;10374606;28;20050;-61
2023/07/28 12:07:16;;;;;;;0.77;0.73;;;;;;;26.14;46.63;99163.44;10373916;28;20049;-61
2023/07/28 12:12:23;;;;;;;0.77;0.73;;;;;;;25.21;47.81;99152.88;10384159;28;20418;-61
2023/07/28 12:17:28;;;;;;;0.77;0.73;;;;;;;24.92;49.04;99178.13;10339387;28;20518;-61
2023/07/28 12:22:50;;;;;;;0.90;0.63;;;;;;;25.17;48.75;99157.00;10369411;28;20119;-61
2023/07/28 12:27:52;;;;;;;2.05;0.80;;;;;;;25.19;48.81;99176.34;10387813;28;20052;-61
2023/07/28 12:32:55;;;;;;;0.70;0.60;;;;;;;25.40;48.59;99171.69;10370743;28;20387;-61
2023/07/28 12:38:01;;;;;;;0.75;0.57;;;;;;;25.59;48.33;99170.84;10365796;28;20510;-62
2023/07/28 12:43:04;;;;;;;0.95;0.85;;;;;;;25.50;47.92;99180.13;10313969;28;20690;-61
2023/07/28 12:48:08;;;;;;;1.20;0.90;;;;;;;25.35;48.64;99176.81;10308900;28;20073;-61
2023/07/28 12:53:20;;;;;;;2.30;0.70;;;;;;;25.48;48.37;99176.84;10309359;28;20192;-61
2023/07/28 12:58:24;;;;;;;1.70;0.95;;;;;;;25.27;48.53;99179.66;10296299;28;20291;-61
2023/07/28 13:03:29;;;;;;;1.85;0.90;;;;;;;25.40;48.69;99182.41;10367729;28;20048;-61
2023/07/28 13:08:31;;;;;;;0.95;0.80;;;;;;;25.39;48.33;99180.72;10381311;28;20524;-61
2023/07/28 13:13:41;;;;;;;0.98;0.80;;;;;;;25.32;48.25;99187.91;10350185;28;20057;-61
2023/07/28 13:18:43;;;;;;;0.95;0.80;;;;;;;25.68;47.83;99183.03;10381471;28;20061;-61
2023/07/28 13:23:46;;;;;;;1.23;0.90;;;;;;;26.17;47.00;99174.53;10376740;28;20072;-61
2023/07/28 13:28:48;;;;;;;2.65;0.82;;;;;;;26.58;45.99;99168.88;10309506;28;20052;-61
2023/07/28 13:33:50;;;;;;;1.40;0.90;;;;;;;26.66;45.73;99171.31;10295276;28;20065;-61
2023/07/28 13:38:52;;;;;;;1.88;0.80;;;;;;;26.87;45.63;99164.81;10308286;28;20146;-62
2023/07/28 13:43:54;;;;;;;1.08;0.80;;;;;;;26.73;45.24;99158.69;10309063;28;20600;-61
2023/07/28 13:49:03;;;;;;;0.73;0.73;;;;;;;26.59;45.51;99149.88;10305228;28;20081;-61
2023/07/28 13:54:10;;;;;;;0.80;0.63;;;;;;;26.50;45.20;99164.56;10306483;28;20053;-61
2023/07/28 13:59:15;;;;;;;0.70;0.65;;;;;;;26.48;45.58;99155.06;10305210;28;20042;-62
2023/07/28 14:04:17;;;;;;;0.68;0.63;;;;;;;26.60;45.22;99156.06;10335828;28;20101;-61
2023/07/28 14:09:20;;;;;;;1.50;0.82;;;;;;;26.45;45.69;99150.13;10277416;28;20136;-61
2023/07/28 14:18:19;;;;;;;0.70;0.60;;;;;;;26.14;46.06;99150.03;10536773;27;20612;-60
2023/07/28 14:23:28;;;;;;;1.13;0.80;;;;;;;26.07;45.81;99149.19;10542961;28;20048;-60
2023/07/28 14:28:30;;;;;;;0.82;0.70;;;;;;;26.05;46.12;99148.59;10542706;28;20044;-60
2023/07/28 14:33:32;;;;;;;0.70;0.70;;;;;;;26.07;45.89;99150.03;10544531;28;20059;-60
2023/07/28 14:38:34;;;;;;;0.73;0.60;;;;;;;25.92;46.27;99152.09;10540481;28;20054;-61
2023/07/28 14:43:36;;;;;;;1.23;0.85;;;;;;;25.82;46.78;99154.38;10540796;28;20058;-61
2023/07/28 14:48:38;;;;;;;0.82;0.55;;;;;;;25.95;46.63;99153.53;10539162;28;20055;-60
2023/07/28 14:53:40;;;;;;;0.85;0.70;;;;;;;25.99;46.38;99157.47;10541168;28;20139;-60
2023/07/28 14:58:43;;;;;;;0.55;0.50;;;;;;;26.12;46.20;99165.50;10540739;28;20677;-60
2023/07/28 15:14:40;;;;;;;0.70;0.68;;;;;;;25.16;48.25;99164.22;10446972;27;20694;-60
2023/07/28 15:22:29;;;;;;;0.73;0.70;;;;;;;25.18;48.25;99150.63;10418384;28;20656;-60
2023/07/28 15:27:31;;;;;;;0.98;0.70;;;;;;;25.77;47.37;99157.66;10412873;28;20052;-60
2023/07/28 15:46:00;;;;;;;0.55;0.55;;;;;;;25.48;48.28;99152.75;10499082;27;20617;-61
2023/07/28 15:51:03;;;;;;;0.57;0.57;;;;;;;25.72;47.99;99156.63;10494277;28;20048;-61
2023/07/28 15:56:07;;;;;;;1.77;0.95;;;;;;;25.82;47.26;99160.56;10487943;28;20713;-61
2023/07/28 16:04:05;;;;;;;0.60;0.40;;;;;;;25.80;46.71;99159.09;10322410;28;20129;-60
2023/07/28 16:09:07;;;;;;;0.57;0.57;;;;;;;25.70;46.94;99161.38;10313881;28;20057;-60
2023/07/28 16:14:18;;;;;;;0.55;0.50;;;;;;;25.84;46.09;99161.16;10384430;28;20048;-60
2023/07/28 16:19:20;;;;;;;0.63;0.47;;;;;;;25.71;46.68;99155.81;10465669;28;20049;-60
2023/07/28 16:24:22;;;;;;;0.50;0.50;;;;;;;25.56;46.98;99168.59;10460313;28;20094;-60
2023/07/28 16:29:24;;;;;;;0.60;0.47;;;;;;;25.33;47.50;99157.44;10457822;28;20048;-60
2023/07/28 16:34:26;;;;;;;0.40;0.40;;;;;;;25.10;47.61;99148.97;10462244;28;20130;-60
2023/07/28 16:39:29;;;;;;;0.47;0.47;;;;;;;25.18;47.51;99142.59;10459525;28;20053;-60
2023/07/28 16:44:31;;;;;;;0.60;0.60;;;;;;;25.24;47.13;99141.78;10464115;28;20125;-60
2023/07/28 16:49:33;;;;;;;1.23;0.60;;;;;;;25.42;46.98;99145.53;10454660;28;20056;-60
2023/07/28 16:54:35;;;;;;;0.50;0.50;;;;;;;25.42;46.99;99158.09;10468273;28;20577;-62
2023/07/28 16:59:37;;;;;;;0.35;0.35;;;;;;;25.37;47.11;99156.03;10468507;28;20510;-62
2023/07/28 17:04:39;;;;;;;0.50;0.50;;;;;;;24.99;47.72;99155.75;10470274;28;20161;-62
2023/07/28 17:09:42;;;;;;;1.95;0.60;;;;;;;24.94;47.72;99158.19;10463648;28;20041;-61
2023/07/28 17:14:44;;;;;;;0.50;0.50;;;;;;;24.69;48.04;99156.22;10421457;28;20118;-62
2023/07/28 17:19:46;;;;;;;0.40;0.40;;;;;;;24.55;48.56;99162.56;10431553;28;20040;-62
2023/07/28 17:24:50;;;;;;;0.57;0.57;;;;;;;24.29;48.92;99165.91;10442077;28;20043;-62
2023/07/28 17:29:53;;;;;;;2.20;0.77;;;;;;;24.06;49.09;99163.47;10416026;28;20045;-62
2023/07/28 17:34:55;;;;;;;0.45;0.45;;;;;;;24.04;49.24;99162.06;10437829;28;20592;-62
2023/07/28 17:39:57;;;;;;;0.50;0.50;;;;;;;23.88;49.82;99171.19;10432966;28;20279;-62
2023/07/28 17:45:00;;;;;;;0.98;0.70;;;;;;;23.69;50.28;99176.38;10432527;28;20049;-61
2023/07/28 17:50:05;;;;;;;0.60;0.60;;;;;;;23.75;50.59;99172.94;10431124;28;20393;-61
2023/07/28 17:55:09;;;;;;;1.85;0.60;;;;;;;23.59;50.74;99189.22;10431020;28;20047;-62
2023/07/28 18:00:12;;;;;;;0.65;0.65;;;;;;;23.44;50.96;99183.97;10431717;28;20055;-61
2023/07/28 18:05:14;;;;;;;0.52;0.40;;;;;;;23.07;51.61;99187.69;10412875;28;20045;-62
2023/07/28 18:10:16;;;;;;;0.50;0.47;;;;;;;23.02;51.75;99186.59;10428370;28;20535;-61
2023/07/28 18:15:18;;;;;;;0.55;0.55;;;;;;;22.91;51.96;99190.56;10422698;28;20041;-59
2023/07/28 18:20:22;;;;;;;0.95;0.80;;;;;;;22.64;52.20;99192.06;10432841;28;20509;-57
2023/07/28 18:25:24;;;;;;;1.75;0.70;;;;;;;22.63;52.46;99205.59;10430432;28;20049;-58
2023/07/28 18:30:26;;;;;;;0.80;0.47;;;;;;;22.61;52.75;99213.78;10407430;28;20062;-58
2023/07/28 18:35:28;;;;;;;2.08;0.63;;;;;;;22.47;53.16;99225.28;10415553;28;20048;-58
2023/07/28 18:40:30;;;;;;;0.88;0.85;;;;;;;22.35;54.40;99232.06;10432248;28;20044;-58
2023/07/28 18:45:32;;;;;;;2.78;1.02;;;;;;;22.16;55.54;99247.75;10431980;28;20077;-57
2023/07/28 18:50:35;;;;;;;1.02;0.75;;;;;;;21.27;58.52;99271.53;10435425;28;20053;-58
2023/07/28 18:55:37;;;;;;;1.00;0.57;;;;;;;20.80;58.80;99277.78;10427658;28;20048;-58
2023/07/28 19:00:39;;;;;;;2.65;0.40;;;;;;;20.44;59.96;99270.38;10426500;28;20049;-57
2023/07/28 19:05:41;;;;;;;0.65;0.45;;;;;;;20.39;60.62;99267.41;10410342;28;20182;-58
2023/07/28 19:10:44;;;;;;;1.00;0.40;;;;;;;20.31;61.22;99270.91;10414251;28;20199;-58
2023/07/28 19:15:46;;;;;;;0.73;0.47;;;;;;;20.30;61.64;99274.53;10426223;28;20077;-59
2023/07/28 19:20:49;;;;;;;0.47;0.47;;;;;;;20.33;61.81;99271.56;10436121;28;20449;-58
2023/07/28 19:25:52;;;;;;;0.80;0.70;;;;;;;20.24;62.53;99262.78;10412962;28;20638;-58
2023/07/28 19:30:56;;;;;;;0.77;0.60;;;;;;;20.19;62.88;99269.59;10434569;28;20037;-58
2023/07/28 19:35:59;;;;;;;1.13;0.80;;;;;;;20.11;63.55;99266.97;10410273;28;20547;-59
2023/07/28 19:41:01;;;;;;;1.40;0.70;;;;;;;20.11;63.75;99274.94;10430334;28;20436;-59
2023/07/28 19:46:03;;;;;;;0.77;0.57;;;;;;;20.15;63.53;99282.38;10427921;28;20157;-58
2023/07/28 19:51:07;;;;;;;0.50;0.50;;;;;;;20.01;64.04;99277.75;10436293;28;20560;-58
2023/07/28 19:56:10;;;;;;;1.65;0.95;;;;;;;19.82;64.94;99277.25;10436696;28;20040;-58
2023/07/28 20:01:13;;;;;;;0.98;0.60;;;;;;;19.80;64.97;99273.91;10425700;28;20059;-58
2023/07/28 20:06:15;;;;;;;1.70;0.70;;;;;;;19.84;65.23;99277.91;10432148;28;20787;-58
2023/07/28 20:11:17;;;;;;;0.70;0.70;;;;;;;19.90;65.20;99290.53;10427204;28;20184;-58
2023/07/28 20:16:19;;;;;;;0.75;0.73;;;;;;;19.94;65.34;99283.88;10411425;28;20940;-58
2023/07/28 20:21:21;;;;;;;0.35;0.35;;;;;;;19.85;65.12;99292.84;10423076;28;20064;-58
2023/07/28 20:26:23;;;;;;;0.70;0.60;;;;;;;19.75;65.71;99292.97;10427523;28;20091;-58
2023/07/28 20:31:25;;;;;;;0.40;0.40;;;;;;;19.56;65.87;99301.25;10407980;28;20045;-58
2023/07/28 20:36:28;;;;;;;0.73;0.70;;;;;;;19.23;65.93;99304.84;10411387;28;20132;-58
2023/07/28 20:41:30;;;;;;;0.52;0.52;;;;;;;19.00;66.57;99304.56;10430066;28;20059;-58
2023/07/28 20:46:32;;;;;;;0.75;0.55;;;;;;;18.95;66.87;99306.03;10428846;28;20048;-58
2023/07/28 20:51:34;;;;;;;1.10;0.80;;;;;;;18.85;66.88;99300.84;10435233;28;20049;-58
2023/07/28 20:56:36;;;;;;;1.02;0.90;;;;;;;18.93;67.44;99316.78;10443565;28;20056;-58
2023/07/28 21:01:39;;;;;;;1.40;0.70;;;;;;;18.97;67.47;99312.00;10434720;28;20144;-58
2023/07/28 21:06:48;;;;;;;1.45;0.75;;;;;;;18.80;67.55;99313.75;10437625;28;20051;-58
2023/07/28 21:11:50;;;;;;;0.50;0.50;;;;;;;18.80;67.57;99313.75;10438985;28;20231;-58
2023/07/28 21:16:52;;;;;;;0.88;0.80;;;;;;;18.91;67.72;99316.09;10437192;28;20051;-58
2023/07/28 21:21:55;;;;;;;1.33;0.80;;;;;;;18.75;67.41;99320.53;10450285;28;20048;-59
2023/07/28 21:26:57;;;;;;;3.90;1.00;;;;;;;18.75;67.88;99329.28;10432371;28;20546;-59
2023/07/28 21:32:00;;;;;;;0.95;0.80;;;;;;;18.67;68.15;99323.13;10430411;28;20048;-59
2023/07/28 21:37:02;;;;;;;3.00;0.60;;;;;;;18.85;67.85;99318.59;10415635;28;20421;-59
2023/07/28 21:42:10;;;;;;;1.67;1.20;;;;;;;18.76;68.03;99317.69;10433202;28;20088;-59
2023/07/28 21:47:13;;;;;;;1.65;0.80;;;;;;;18.76;68.11;99328.31;10425868;28;20052;-59
2023/07/28 21:52:15;;;;;;;0.93;0.80;;;;;;;18.76;68.12;99328.31;10413995;28;20041;-59
2023/07/28 21:57:17;;;;;;;1.50;0.80;;;;;;;18.86;67.91;99329.00;10425882;28;20072;-59
2023/07/28 22:02:19;;;;;;;1.13;0.88;;;;;;;18.96;67.97;99323.56;10432633;28;20195;-59
2023/07/28 22:07:21;;;;;;;1.15;0.85;;;;;;;18.98;67.59;99327.72;10399783;28;20107;-60
2023/07/28 22:12:25;;;;;;;0.93;0.70;;;;;;;19.00;67.84;99319.63;10417866;28;20048;-59
2023/07/28 22:17:28;;;;;;;1.45;1.00;;;;;;;19.01;67.51;99308.03;10427229;28;20048;-59
2023/07/28 22:22:30;;;;;;;7.90;1.20;;;;;;;18.83;67.82;99304.66;10430383;28;20047;-59
2023/07/28 22:27:32;;;;;;;1.02;0.93;;;;;;;18.75;67.96;99299.31;10428448;28;20056;-59
2023/07/28 22:32:35;;;;;;;0.90;0.80;;;;;;;18.78;68.10;99294.53;10431872;28;20055;-60
2023/07/28 22:37:37;;;;;;;3.42;1.38;;;;;;;18.77;67.92;99276.97;10425961;28;20071;-59
2023/07/28 22:42:40;;;;;;;2.50;1.10;;;;;;;18.80;68.00;99275.81;10409899;28;20124;-59
2023/07/28 22:47:42;;;;;;;2.10;1.10;;;;;;;18.78;68.10;99268.03;10427190;28;20052;-59
2023/07/28 22:52:45;;;;;;;1.20;0.88;;;;;;;18.73;67.91;99272.16;10427572;28;20047;-59
2023/07/28 22:57:47;;;;;;;1.23;1.00;;;;;;;18.62;68.24;99270.63;10427754;28;20183;-59
2023/07/28 23:02:50;;;;;;;1.50;1.00;;;;;;;18.61;67.99;99258.34;10426090;28;20521;-59
2023/07/28 23:07:52;;;;;;;1.77;1.30;;;;;;;18.52;68.29;99261.97;10428026;28;20036;-60
2023/07/28 23:12:55;;;;;;;0.80;0.63;;;;;;;18.49;68.01;99256.97;10427960;28;20036;-59
2023/07/28 23:17:58;;;;;;;1.10;1.00;;;;;;;18.41;68.41;99255.13;10426142;28;20484;-59
2023/07/28 23:23:00;;;;;;;1.10;0.90;;;;;;;18.38;68.25;99271.31;10427771;28;20049;-59
2023/07/28 23:28:02;;;;;;;1.23;0.98;;;;;;;18.31;68.38;99277.41;10426775;28;20080;-60
2023/07/28 23:33:04;;;;;;;1.67;0.95;;;;;;;18.34;68.42;99275.25;10425677;28;20439;-59
2023/07/28 23:38:08;;;;;;;1.20;1.00;;;;;;;18.34;68.61;99277.09;10414036;28;20045;-59
2023/07/28 23:43:10;;;;;;;1.67;0.93;;;;;;;18.51;68.70;99268.22;10427701;28;20108;-59
2023/07/28 23:48:12;;;;;;;1.63;0.90;;;;;;;18.56;68.23;99256.16;10425099;28;20170;-60
2023/07/28 23:53:14;;;;;;;1.95;1.10;;;;;;;18.48;68.23;99253.50;10428588;28;20041;-59
2023/07/28 23:58:17;;;;;;;1.48;1.00;;;;;;;18.42;68.29;99240.88;10425737;28;20051;-59
